Time;durP1;ratioP1;P1;durP2;ratioP2;P2;SDS_P1;SDS_P2;PMS_P1;PMS_P2;Temp;Humidity;BMP_temperature;BMP_pressure;BME280_temperature;BME280_humidity;BME280_pressure;Samples;Min_cycle;Max_cycle;Signal;HPM_P1;HPM_P2
2022/06/08 00:02:20;;;;;;;4.00;2.63;;;;;;;;;;5098466;28;20783;-76
2022/06/08 00:04:48;;;;;;;3.63;2.50;;;;;;;;;;5099668;28;20205;-76
2022/06/08 00:07:16;;;;;;;3.37;3.07;;;;;;;;;;5100069;28;20225;-76
2022/06/08 00:09:46;;;;;;;6.07;3.60;;;;;;;;;;5096824;28;20699;-76
2022/06/08 00:12:14;;;;;;;5.93;1.83;;;;;;;;;;5099909;28;20237;-78
2022/06/08 00:14:42;;;;;;;2.87;1.57;;;;;;;;;;5100923;28;20210;-75
2022/06/08 00:17:11;;;;;;;3.83;1.57;;;;;;;;;;5100661;28;20261;-77
2022/06/08 00:19:39;;;;;;;2.50;1.33;;;;;;;;;;5100411;28;20238;-77
2022/06/08 00:22:07;;;;;;;2.00;1.40;;;;;;;;;;5100591;28;20555;-76
2022/06/08 00:24:35;;;;;;;1.50;1.10;;;;;;;;;;5097851;28;20677;-78
2022/06/08 00:27:05;;;;;;;1.90;1.00;;;;;;;;;;5100637;28;20282;-77
2022/06/08 00:29:33;;;;;;;2.20;1.20;;;;;;;;;;5100597;28;20206;-77
2022/06/08 00:32:01;;;;;;;3.63;1.23;;;;;;;;;;5099991;28;20248;-77
2022/06/08 00:34:29;;;;;;;7.17;1.37;;;;;;;;;;5097784;28;20227;-77
2022/06/08 00:36:57;;;;;;;2.87;1.67;;;;;;;;;;5095897;28;20218;-77
2022/06/08 00:39:25;;;;;;;2.53;1.40;;;;;;;;;;5085932;28;20203;-77
2022/06/08 00:41:56;;;;;;;3.93;1.80;;;;;;;;;;5091213;28;20202;-76
2022/06/08 00:44:28;;;;;;;2.67;1.67;;;;;;;;;;5081346;28;20814;-77
2022/06/08 00:46:56;;;;;;;6.87;1.50;;;;;;;;;;5099010;28;20260;-76
2022/06/08 00:49:26;;;;;;;1.53;1.20;;;;;;;;;;5095303;28;20626;-76
2022/06/08 00:51:54;;;;;;;4.70;1.30;;;;;;;;;;5091159;28;20233;-77
2022/06/08 00:54:26;;;;;;;1.47;1.27;;;;;;;;;;5097332;28;20685;-77
2022/06/08 00:56:56;;;;;;;3.50;1.40;;;;;;;;;;5088760;28;20233;-75
2022/06/08 00:59:25;;;;;;;3.40;1.80;;;;;;;;;;5081373;28;20236;-76
2022/06/08 01:01:53;;;;;;;1.97;1.40;;;;;;;;;;5080331;28;20557;-76
2022/06/08 01:04:21;;;;;;;1.20;1.20;;;;;;;;;;5099805;28;20606;-76
2022/06/08 01:06:53;;;;;;;2.70;1.23;;;;;;;;;;5099997;28;20682;-77
2022/06/08 01:09:25;;;;;;;1.97;1.13;;;;;;;;;;5087922;28;20228;-79
2022/06/08 01:11:53;;;;;;;3.87;1.73;;;;;;;;;;5097521;28;20233;-76
2022/06/08 01:14:21;;;;;;;2.93;1.43;;;;;;;;;;5088748;28;20668;-76
2022/06/08 01:16:53;;;;;;;3.33;1.53;;;;;;;;;;5097592;28;20268;-76
2022/06/08 01:19:21;;;;;;;4.07;1.50;;;;;;;;;;5090074;28;20605;-76
2022/06/08 01:21:55;;;;;;;3.13;1.40;;;;;;;;;;5096038;28;20232;-76
2022/06/08 01:24:24;;;;;;;0.97;0.90;;;;;;;;;;5079780;28;20214;-77
2022/06/08 01:26:57;;;;;;;2.83;1.20;;;;;;;;;;5079757;28;20222;-76
2022/06/08 01:29:28;;;;;;;2.37;1.30;;;;;;;;;;5079710;28;20206;-77
2022/06/08 01:32:01;;;;;;;4.93;1.60;;;;;;;;;;5089021;28;20233;-76
2022/06/08 01:34:33;;;;;;;3.57;0.93;;;;;;;;;;5088770;28;20213;-77
2022/06/08 01:37:09;;;;;;;1.27;1.10;;;;;;;;;;5099317;28;20335;-76
2022/06/08 01:39:44;;;;;;;2.33;1.20;;;;;;;;;;5093388;28;20665;-75
2022/06/08 01:42:22;;;;;;;2.07;1.40;;;;;;;;;;5093173;28;20205;-75
2022/06/08 01:47:46;;;;;;;1.77;1.37;;;;;;;;;;5080296;28;20256;-75
2022/06/08 01:50:34;;;;;;;3.47;1.33;;;;;;;;;;5081865;28;20218;-75
2022/06/08 01:53:07;;;;;;;2.27;1.13;;;;;;;;;;5098551;28;20237;-75
2022/06/08 01:55:40;;;;;;;2.20;1.37;;;;;;;;;;5091744;28;20653;-74
2022/06/08 01:58:13;;;;;;;3.23;1.30;;;;;;;;;;5098471;28;20225;-75
2022/06/08 02:00:43;;;;;;;1.67;1.33;;;;;;;;;;5098332;28;20245;-75
2022/06/08 02:03:16;;;;;;;3.17;1.10;;;;;;;;;;5097762;28;20234;-75
2022/06/08 02:05:46;;;;;;;3.50;1.37;;;;;;;;;;5087135;28;20208;-76
2022/06/08 02:08:21;;;;;;;1.40;1.07;;;;;;;;;;5097801;28;20197;-76
2022/06/08 02:10:53;;;;;;;2.87;1.00;;;;;;;;;;5097740;28;20206;-75
2022/06/08 02:13:24;;;;;;;3.17;1.43;;;;;;;;;;5097728;28;20701;-75
2022/06/08 02:15:54;;;;;;;3.53;1.50;;;;;;;;;;5098134;28;20205;-77
2022/06/08 02:18:24;;;;;;;2.37;1.50;;;;;;;;;;5097524;28;20723;-75
2022/06/08 02:20:54;;;;;;;2.90;1.20;;;;;;;;;;5098863;28;20251;-75
2022/06/08 02:23:26;;;;;;;2.03;1.60;;;;;;;;;;5096934;28;20201;-76
2022/06/08 02:25:56;;;;;;;3.13;2.30;;;;;;;;;;5096787;28;20206;-76
2022/06/08 02:28:28;;;;;;;3.47;1.27;;;;;;;;;;5097887;28;20236;-76
2022/06/08 02:30:58;;;;;;;2.07;1.43;;;;;;;;;;5096429;28;20575;-75
2022/06/08 02:36:15;;;;;;;2.03;1.47;;;;;;;;;;5097952;28;20220;-75
2022/06/08 02:38:49;;;;;;;3.17;1.33;;;;;;;;;;5096224;28;20260;-75
2022/06/08 02:41:17;;;;;;;2.70;1.27;;;;;;;;;;5097972;28;20205;-75
2022/06/08 02:43:47;;;;;;;2.43;1.43;;;;;;;;;;5098029;28;20202;-76
2022/06/08 02:46:20;;;;;;;2.40;1.63;;;;;;;;;;5098042;28;20256;-77
2022/06/08 02:48:48;;;;;;;3.77;1.20;;;;;;;;;;5084976;28;20328;-76
2022/06/08 02:51:17;;;;;;;1.63;1.30;;;;;;;;;;5091216;28;20209;-77
2022/06/08 02:53:58;;;;;;;2.33;1.87;;;;;;;;;;5097891;28;20641;-77
2022/06/08 02:56:32;;;;;;;3.80;1.63;;;;;;;;;;5080901;28;20258;-76
2022/06/08 02:59:03;;;;;;;3.90;0.97;;;;;;;;;;5087879;28;20313;-77
2022/06/08 03:01:34;;;;;;;2.10;1.40;;;;;;;;;;5081975;28;20237;-77
2022/06/08 03:04:05;;;;;;;1.77;1.00;;;;;;;;;;5078442;28;20213;-76
2022/06/08 03:06:34;;;;;;;4.67;1.13;;;;;;;;;;5083910;28;20588;-73
2022/06/08 03:09:06;;;;;;;3.63;1.10;;;;;;;;;;5098088;28;20228;-74
2022/06/08 03:11:36;;;;;;;1.70;1.33;;;;;;;;;;5078848;28;20206;-74
2022/06/08 03:14:06;;;;;;;5.03;1.20;;;;;;;;;;5078752;28;20249;-77
2022/06/08 03:16:35;;;;;;;4.30;1.40;;;;;;;;;;5078042;28;20743;-76
2022/06/08 03:19:04;;;;;;;1.90;1.60;;;;;;;;;;5092104;28;20630;-75
2022/06/08 03:21:32;;;;;;;3.73;1.37;;;;;;;;;;5089530;28;20201;-75
2022/06/08 03:24:00;;;;;;;4.20;1.50;;;;;;;;;;5091450;28;20229;-74
2022/06/08 03:26:36;;;;;;;3.43;1.20;;;;;;;;;;5097362;28;20260;-75
2022/06/08 03:29:04;;;;;;;1.57;0.87;;;;;;;;;;5083828;28;20255;-74
2022/06/08 03:31:32;;;;;;;3.93;1.23;;;;;;;;;;5097160;28;20264;-74
2022/06/08 03:34:00;;;;;;;5.17;1.20;;;;;;;;;;5097080;28;20205;-77
2022/06/08 03:36:28;;;;;;;4.43;1.63;;;;;;;;;;5089160;28;20225;-77
2022/06/08 03:38:57;;;;;;;1.83;1.07;;;;;;;;;;5096462;28;20221;-77
2022/06/08 03:41:31;;;;;;;2.33;1.13;;;;;;;;;;5078086;28;20202;-75
2022/06/08 03:43:59;;;;;;;2.87;1.20;;;;;;;;;;5090214;28;20296;-75
2022/06/08 03:46:29;;;;;;;6.47;1.27;;;;;;;;;;5086383;28;20213;-74
2022/06/08 03:48:57;;;;;;;2.50;1.00;;;;;;;;;;5092305;28;20292;-73
2022/06/08 03:51:25;;;;;;;2.03;0.83;;;;;;;;;;5087073;28;20628;-75
2022/06/08 03:53:55;;;;;;;3.73;1.73;;;;;;;;;;5089308;28;20225;-75
2022/06/08 03:56:24;;;;;;;4.97;1.50;;;;;;;;;;5080229;28;20252;-73
2022/06/08 03:58:54;;;;;;;3.53;1.00;;;;;;;;;;5095647;28;20251;-74
2022/06/08 04:01:22;;;;;;;2.73;1.40;;;;;;;;;;5097281;28;20213;-74
2022/06/08 04:03:52;;;;;;;4.60;1.60;;;;;;;;;;5096804;28;20210;-74
2022/06/08 04:06:20;;;;;;;4.93;1.30;;;;;;;;;;5094580;28;20225;-74
2022/06/08 04:08:48;;;;;;;1.80;1.30;;;;;;;;;;5093107;28;20238;-73
2022/06/08 04:11:17;;;;;;;3.27;1.57;;;;;;;;;;5075806;28;20237;-74
2022/06/08 04:13:45;;;;;;;2.00;1.30;;;;;;;;;;5076628;28;20664;-73
2022/06/08 04:16:16;;;;;;;1.60;1.30;;;;;;;;;;5086764;28;20655;-73
2022/06/08 04:18:44;;;;;;;2.97;1.20;;;;;;;;;;5097025;28;20294;-73
2022/06/08 04:21:13;;;;;;;2.80;1.30;;;;;;;;;;5096286;28;20247;-74
2022/06/08 04:23:43;;;;;;;4.50;1.70;;;;;;;;;;5094104;28;20243;-75
2022/06/08 04:26:11;;;;;;;4.77;1.77;;;;;;;;;;5096275;28;20221;-76
2022/06/08 04:28:40;;;;;;;4.17;1.70;;;;;;;;;;5097052;28;20281;-74
2022/06/08 04:31:08;;;;;;;5.23;2.33;;;;;;;;;;5096649;28;20237;-75
2022/06/08 04:33:38;;;;;;;2.87;1.73;;;;;;;;;;5097290;28;20210;-76
2022/06/08 04:36:12;;;;;;;5.50;2.90;;;;;;;;;;5094747;28;20238;-74
2022/06/08 04:38:40;;;;;;;5.20;2.30;;;;;;;;;;5091131;28;20214;-75
2022/06/08 04:41:08;;;;;;;2.80;2.10;;;;;;;;;;5094435;28;20221;-75
2022/06/08 04:43:37;;;;;;;2.77;1.97;;;;;;;;;;5092070;28;20580;-75
2022/06/08 04:46:05;;;;;;;4.07;2.67;;;;;;;;;;5094077;28;20234;-76
2022/06/08 04:48:33;;;;;;;4.90;2.27;;;;;;;;;;5096330;28;20284;-77
2022/06/08 04:51:03;;;;;;;4.93;2.07;;;;;;;;;;5091611;28;20295;-78
2022/06/08 04:53:31;;;;;;;4.30;2.10;;;;;;;;;;5090630;28;20734;-78
2022/06/08 04:55:59;;;;;;;5.03;1.77;;;;;;;;;;5095661;28;21006;-76
2022/06/08 04:58:27;;;;;;;2.23;1.80;;;;;;;;;;5098905;28;20244;-78
2022/06/08 05:00:55;;;;;;;6.37;2.23;;;;;;;;;;5098505;28;20209;-77
2022/06/08 05:03:23;;;;;;;3.43;1.80;;;;;;;;;;5099225;28;20209;-77
2022/06/08 05:05:51;;;;;;;4.57;1.83;;;;;;;;;;5098754;28;20209;-77
2022/06/08 05:08:23;;;;;;;3.43;1.70;;;;;;;;;;5098874;28;20202;-77
2022/06/08 05:10:51;;;;;;;5.43;2.30;;;;;;;;;;5098612;28;20237;-78
2022/06/08 05:13:20;;;;;;;5.63;1.90;;;;;;;;;;5085327;28;20202;-77
2022/06/08 05:15:49;;;;;;;5.10;2.30;;;;;;;;;;5098858;28;20209;-76
2022/06/08 05:18:20;;;;;;;5.27;2.60;;;;;;;;;;5097026;28;20236;-76
2022/06/08 05:20:49;;;;;;;9.73;3.00;;;;;;;;;;5079156;28;20718;-76
2022/06/08 05:23:19;;;;;;;8.03;2.70;;;;;;;;;;5079396;28;20248;-76
2022/06/08 05:25:48;;;;;;;7.67;2.90;;;;;;;;;;5078786;28;20335;-76
2022/06/08 05:28:17;;;;;;;8.97;2.83;;;;;;;;;;5079359;28;20259;-77
2022/06/08 05:30:45;;;;;;;7.87;3.20;;;;;;;;;;5078626;28;20678;-75
2022/06/08 05:33:13;;;;;;;3.37;2.27;;;;;;;;;;5090181;28;20198;-75
2022/06/08 05:35:41;;;;;;;4.73;2.17;;;;;;;;;;5095361;28;20205;-77
2022/06/08 05:38:10;;;;;;;11.23;2.50;;;;;;;;;;5098110;28;20540;-76
2022/06/08 05:40:38;;;;;;;5.13;1.93;;;;;;;;;;5088037;28;20234;-75
2022/06/08 05:43:08;;;;;;;3.50;2.00;;;;;;;;;;5087122;28;20232;-77
2022/06/08 05:45:38;;;;;;;6.10;2.07;;;;;;;;;;5089232;28;20272;-76
2022/06/08 05:48:07;;;;;;;5.87;1.93;;;;;;;;;;5095636;28;20244;-73
2022/06/08 05:50:35;;;;;;;4.17;1.67;;;;;;;;;;5085257;28;20561;-73
2022/06/08 05:53:04;;;;;;;2.47;1.60;;;;;;;;;;5098129;28;20237;-77
2022/06/08 05:55:32;;;;;;;6.27;1.80;;;;;;;;;;5087456;28;20209;-76
2022/06/08 05:58:00;;;;;;;5.10;1.90;;;;;;;;;;5088609;28;20620;-74
2022/06/08 06:00:31;;;;;;;5.97;2.43;;;;;;;;;;5086516;28;20818;-76
2022/06/08 06:03:00;;;;;;;5.37;2.30;;;;;;;;;;5099417;28;20236;-76
2022/06/08 06:05:34;;;;;;;5.93;2.77;;;;;;;;;;5098367;28;20237;-75
2022/06/08 06:08:02;;;;;;;7.30;3.03;;;;;;;;;;5098360;28;20720;-76
2022/06/08 06:10:32;;;;;;;3.90;2.57;;;;;;;;;;5098364;28;20193;-74
2022/06/08 06:13:00;;;;;;;6.47;2.70;;;;;;;;;;5098120;28;20223;-75
2022/06/08 06:15:30;;;;;;;6.17;2.13;;;;;;;;;;5098565;28;20206;-76
2022/06/08 06:17:58;;;;;;;5.17;2.23;;;;;;;;;;5095310;28;20221;-77
2022/06/08 06:20:26;;;;;;;3.37;2.30;;;;;;;;;;5094583;28;20259;-77
2022/06/08 06:22:54;;;;;;;6.73;2.73;;;;;;;;;;5099700;28;20212;-76
2022/06/08 06:25:23;;;;;;;4.50;2.10;;;;;;;;;;5096981;28;20228;-76
2022/06/08 06:27:51;;;;;;;4.87;2.07;;;;;;;;;;5099397;28;20232;-76
2022/06/08 06:30:20;;;;;;;4.67;1.73;;;;;;;;;;5100028;28;20202;-78
2022/06/08 06:32:49;;;;;;;5.43;1.70;;;;;;;;;;5099412;28;20235;-77
2022/06/08 06:35:21;;;;;;;6.83;1.93;;;;;;;;;;5097380;28;20266;-78
2022/06/08 06:37:49;;;;;;;4.20;2.07;;;;;;;;;;5097178;28;20264;-76
2022/06/08 06:40:18;;;;;;;4.73;2.00;;;;;;;;;;5094136;28;20318;-77
2022/06/08 06:42:47;;;;;;;5.17;1.97;;;;;;;;;;5085422;28;20206;-76
2022/06/08 06:45:15;;;;;;;6.23;1.97;;;;;;;;;;5097563;28;20858;-77
2022/06/08 06:47:43;;;;;;;4.87;2.10;;;;;;;;;;5088592;28;20241;-76
2022/06/08 06:50:14;;;;;;;4.57;2.03;;;;;;;;;;5078409;28;20206;-76
2022/06/08 06:52:44;;;;;;;5.03;2.10;;;;;;;;;;5089361;28;20229;-74
2022/06/08 06:55:17;;;;;;;5.30;1.67;;;;;;;;;;5089185;28;20198;-67
2022/06/08 06:57:45;;;;;;;7.53;2.17;;;;;;;;;;5095582;28;20221;-68
2022/06/08 07:00:14;;;;;;;3.03;1.90;;;;;;;;;;5097419;28;20221;-73
2022/06/08 07:02:44;;;;;;;2.77;1.90;;;;;;;;;;5097591;28;20292;-75
2022/06/08 07:05:17;;;;;;;7.03;2.03;;;;;;;;;;5096869;28;20237;-69
2022/06/08 07:07:45;;;;;;;6.97;2.03;;;;;;;;;;5094495;28;20251;-64
2022/06/08 07:13:08;;;;;;;3.10;1.60;;;;;;;;;;5093486;28;20226;-70
2022/06/08 07:15:37;;;;;;;10.00;1.77;;;;;;;;;;5093226;28;20204;-70
2022/06/08 07:18:15;;;;;;;4.70;1.40;;;;;;;;;;5094748;28;20253;-71
2022/06/08 07:20:54;;;;;;;6.60;1.80;;;;;;;;;;5096978;28;20245;-70
2022/06/08 07:23:28;;;;;;;12.27;1.97;;;;;;;;;;5083935;28;20234;-64
2022/06/08 07:26:04;;;;;;;6.27;1.70;;;;;;;;;;5093959;28;20250;-66
2022/06/08 07:28:36;;;;;;;4.27;1.90;;;;;;;;;;5093473;28;20283;-70
2022/06/08 07:31:04;;;;;;;5.73;2.03;;;;;;;;;;5095986;28;20238;-64
2022/06/08 07:33:33;;;;;;;6.10;2.10;;;;;;;;;;5092850;28;20229;-73
2022/06/08 07:36:03;;;;;;;3.70;1.90;;;;;;;;;;5096740;28;20202;-72
2022/06/08 07:38:31;;;;;;;4.10;1.97;;;;;;;;;;5094800;28;20219;-76
2022/06/08 07:40:59;;;;;;;4.37;2.67;;;;;;;;;;5086449;28;20574;-74
2022/06/08 07:43:27;;;;;;;5.47;2.17;;;;;;;;;;5095210;28;20682;-76
2022/06/08 07:45:55;;;;;;;3.17;1.70;;;;;;;;;;5091817;28;20202;-73
2022/06/08 07:51:11;;;;;;;4.77;2.10;;;;;;;;;;5092240;28;20205;-73
2022/06/08 07:53:40;;;;;;;3.73;1.97;;;;;;;;;;5096138;28;20232;-73
2022/06/08 07:56:09;;;;;;;5.90;2.40;;;;;;;;;;5092006;28;20234;-73
2022/06/08 07:58:37;;;;;;;6.17;2.63;;;;;;;;;;5083570;28;20214;-71
2022/06/08 08:01:06;;;;;;;5.50;1.80;;;;;;;;;;5096710;28;20266;-70
2022/06/08 08:03:34;;;;;;;7.00;2.00;;;;;;;;;;5080453;28;20226;-73
2022/06/08 08:06:02;;;;;;;5.03;2.10;;;;;;;;;;5079851;28;20297;-73
2022/06/08 08:08:32;;;;;;;6.07;2.17;;;;;;;;;;5089823;28;20591;-71
2022/06/08 08:11:00;;;;;;;4.57;1.70;;;;;;;;;;5095791;28;20610;-73
2022/06/08 08:13:28;;;;;;;6.40;2.00;;;;;;;;;;5087752;28;20311;-75
2022/06/08 08:15:56;;;;;;;8.57;2.40;;;;;;;;;;5082062;28;20238;-72
2022/06/08 08:18:24;;;;;;;5.47;2.20;;;;;;;;;;5087153;28;20211;-73
2022/06/08 08:20:52;;;;;;;6.10;1.77;;;;;;;;;;5091044;28;20631;-72
2022/06/08 08:23:20;;;;;;;10.13;3.30;;;;;;;;;;5094415;28;20199;-72
2022/06/08 08:25:51;;;;;;;5.97;2.40;;;;;;;;;;5095236;28;20636;-68
2022/06/08 08:28:19;;;;;;;4.87;1.80;;;;;;;;;;5091344;28;20319;-63
2022/06/08 08:30:47;;;;;;;5.00;1.93;;;;;;;;;;5093749;28;20191;-72
2022/06/08 08:33:16;;;;;;;4.57;1.97;;;;;;;;;;5098742;28;20278;-72
2022/06/08 08:35:44;;;;;;;6.30;1.60;;;;;;;;;;5096786;28;20602;-67
2022/06/08 08:38:12;;;;;;;7.83;1.80;;;;;;;;;;5095124;28;20210;-68
2022/06/08 08:40:45;;;;;;;4.50;2.03;;;;;;;;;;5096379;28;20214;-68
2022/06/08 08:43:16;;;;;;;5.83;1.87;;;;;;;;;;5093604;28;20537;-68
2022/06/08 08:45:51;;;;;;;7.57;1.67;;;;;;;;;;5096054;28;20202;-68
2022/06/08 08:48:25;;;;;;;5.33;2.17;;;;;;;;;;5095936;28;20710;-69
2022/06/08 08:50:56;;;;;;;4.90;1.50;;;;;;;;;;5096348;28;20650;-68
2022/06/08 08:53:26;;;;;;;3.27;1.77;;;;;;;;;;5092152;28;20206;-69
2022/06/08 08:55:58;;;;;;;2.80;1.70;;;;;;;;;;5086013;28;20237;-68
2022/06/08 08:58:29;;;;;;;4.30;1.93;;;;;;;;;;5091415;28;20606;-68
2022/06/08 09:01:05;;;;;;;4.07;1.50;;;;;;;;;;5095212;28;20230;-68
2022/06/08 09:03:46;;;;;;;5.10;1.20;;;;;;;;;;5083495;28;20262;-70
2022/06/08 09:06:20;;;;;;;4.07;1.30;;;;;;;;;;5083025;28;20222;-75
2022/06/08 09:08:53;;;;;;;6.33;1.07;;;;;;;;;;5080353;28;20218;-75
2022/06/08 09:11:23;;;;;;;5.07;1.40;;;;;;;;;;5096669;28;20259;-76
2022/06/08 09:13:54;;;;;;;4.40;2.97;;;;;;;;;;5089347;28;20203;-73
2022/06/08 09:16:27;;;;;;;4.60;2.03;;;;;;;;;;5082721;28;20309;-79
2022/06/08 09:18:55;;;;;;;2.50;1.53;;;;;;;;;;5093297;28;20213;-78
2022/06/08 09:21:26;;;;;;;4.77;1.97;;;;;;;;;;5081223;28;20253;-79
2022/06/08 09:23:58;;;;;;;2.80;1.50;;;;;;;;;;5094791;28;20209;-76
2022/06/08 09:26:31;;;;;;;3.00;1.50;;;;;;;;;;5098551;28;20249;-75
2022/06/08 09:29:08;;;;;;;2.27;1.20;;;;;;;;;;5098708;28;20743;-76
2022/06/08 09:31:38;;;;;;;5.13;1.50;;;;;;;;;;5092850;28;20293;-76
2022/06/08 09:34:08;;;;;;;2.90;1.17;;;;;;;;;;5098240;28;20232;-77
2022/06/08 09:36:36;;;;;;;1.87;1.00;;;;;;;;;;5093919;28;20218;-77
2022/06/08 09:39:04;;;;;;;3.80;1.77;;;;;;;;;;5095099;28;20225;-80
2022/06/08 09:41:36;;;;;;;2.23;1.20;;;;;;;;;;5096001;28;20268;-80
2022/06/08 09:44:15;;;;;;;3.40;1.30;;;;;;;;;;5095052;28;20205;-76
2022/06/08 09:52:28;;;;;;;4.20;1.50;;;;;;;;;;5095908;28;20221;-79
2022/06/08 09:55:03;;;;;;;4.50;1.30;;;;;;;;;;5095724;28;20201;-73
2022/06/08 09:57:36;;;;;;;2.97;1.60;;;;;;;;;;5093632;28;20270;-72
2022/06/08 10:00:17;;;;;;;6.03;1.60;;;;;;;;;;5093413;28;20664;-73
2022/06/08 10:02:51;;;;;;;4.73;1.70;;;;;;;;;;5097397;28;20282;-76
2022/06/08 10:05:25;;;;;;;2.17;1.63;;;;;;;;;;5094577;28;20650;-79
2022/06/08 10:07:58;;;;;;;2.77;1.50;;;;;;;;;;5092008;28;20299;-67
2022/06/08 10:10:30;;;;;;;2.90;1.97;;;;;;;;;;5096949;28;20336;-65
2022/06/08 10:12:59;;;;;;;1.90;1.60;;;;;;;;;;5097484;28;20233;-66
2022/06/08 10:15:31;;;;;;;5.30;1.40;;;;;;;;;;5096538;28;20205;-64
2022/06/08 10:18:03;;;;;;;1.60;1.40;;;;;;;;;;5096470;28;20229;-69
2022/06/08 10:20:33;;;;;;;2.00;1.17;;;;;;;;;;5094450;28;20230;-65
2022/06/08 10:23:07;;;;;;;1.33;1.20;;;;;;;;;;5088680;28;20204;-65
2022/06/08 10:25:38;;;;;;;3.67;1.23;;;;;;;;;;5092167;28;20211;-68
2022/06/08 10:28:07;;;;;;;2.67;1.90;;;;;;;;;;5092761;28;20221;-66
2022/06/08 10:30:41;;;;;;;4.83;2.23;;;;;;;;;;5091230;28;20209;-71
2022/06/08 10:33:13;;;;;;;4.33;2.03;;;;;;;;;;5093482;28;20288;-65
2022/06/08 10:35:44;;;;;;;5.03;2.53;;;;;;;;;;5085095;28;20205;-70
2022/06/08 10:38:19;;;;;;;7.30;1.90;;;;;;;;;;5094892;28;20213;-71
2022/06/08 10:40:50;;;;;;;4.77;1.50;;;;;;;;;;5096094;28;20205;-69
2022/06/08 10:43:20;;;;;;;2.97;1.90;;;;;;;;;;5088142;28;20264;-66
2022/06/08 10:45:54;;;;;;;2.53;2.33;;;;;;;;;;5095332;28;20202;-67
2022/06/08 10:48:37;;;;;;;3.97;2.17;;;;;;;;;;5091892;28;20603;-69
2022/06/08 10:51:23;;;;;;;2.80;1.93;;;;;;;;;;5090456;28;20267;-68
2022/06/08 10:56:57;;;;;;;3.50;1.70;;;;;;;;;;5088993;28;20312;-68
2022/06/08 10:59:26;;;;;;;4.27;1.67;;;;;;;;;;5096027;28;20209;-67
2022/06/08 11:02:12;;;;;;;6.17;1.70;;;;;;;;;;5092418;28;20271;-65
2022/06/08 11:04:55;;;;;;;1.33;1.23;;;;;;;;;;5089763;28;20215;-63
2022/06/08 11:07:25;;;;;;;4.77;2.00;;;;;;;;;;5084336;28;20222;-66
2022/06/08 11:09:58;;;;;;;4.03;1.50;;;;;;;;;;5094016;28;20201;-64
2022/06/08 11:12:39;;;;;;;3.43;1.67;;;;;;;;;;5090707;28;20262;-66
2022/06/08 11:15:21;;;;;;;6.57;1.97;;;;;;;;;;5091435;28;20201;-68
2022/06/08 11:17:52;;;;;;;3.50;2.00;;;;;;;;;;5094892;28;20217;-70
2022/06/08 11:20:23;;;;;;;2.47;1.60;;;;;;;;;;5092830;28;20235;-70
2022/06/08 11:22:56;;;;;;;2.50;1.87;;;;;;;;;;5088887;28;20285;-68
2022/06/08 11:25:28;;;;;;;2.67;2.20;;;;;;;;;;5088197;28;20222;-70
2022/06/08 11:28:10;;;;;;;3.53;2.03;;;;;;;;;;5092739;28;20226;-70
2022/06/08 11:30:50;;;;;;;5.20;2.20;;;;;;;;;;5081690;28;20201;-70
2022/06/08 11:33:19;;;;;;;3.53;2.03;;;;;;;;;;5090776;28;20206;-69
2022/06/08 11:35:56;;;;;;;3.17;2.20;;;;;;;;;;5093443;28;20208;-66
2022/06/08 11:38:42;;;;;;;2.97;2.00;;;;;;;;;;5088449;28;20213;-65
2022/06/08 11:41:37;;;;;;;4.17;2.13;;;;;;;;;;5090552;28;20194;-68
2022/06/08 11:44:13;;;;;;;3.93;2.20;;;;;;;;;;5079363;28;20201;-66
2022/06/08 11:46:43;;;;;;;2.47;1.93;;;;;;;;;;5085418;28;20221;-67
2022/06/08 11:49:30;;;;;;;2.40;1.73;;;;;;;;;;5091060;28;20208;-68
2022/06/08 11:51:58;;;;;;;3.37;1.90;;;;;;;;;;5095464;28;20247;-68
2022/06/08 11:54:30;;;;;;;3.57;2.00;;;;;;;;;;5095958;28;20254;-66
2022/06/08 11:57:02;;;;;;;4.50;1.63;;;;;;;;;;5094081;28;20230;-66
2022/06/08 11:59:46;;;;;;;3.60;1.80;;;;;;;;;;5097212;28;20229;-71
2022/06/08 12:02:20;;;;;;;2.23;1.80;;;;;;;;;;5090677;28;20722;-67
2022/06/08 12:04:50;;;;;;;2.03;1.67;;;;;;;;;;5097080;28;20349;-66
2022/06/08 12:07:35;;;;;;;3.80;1.60;;;;;;;;;;5086326;28;20225;-69
2022/06/08 12:10:04;;;;;;;2.57;1.60;;;;;;;;;;5100393;28;20209;-67
2022/06/08 12:12:33;;;;;;;3.17;1.90;;;;;;;;;;5095615;28;20201;-68
2022/06/08 12:15:16;;;;;;;1.73;1.17;;;;;;;;;;5088862;28;20205;-67
2022/06/08 12:17:48;;;;;;;2.57;1.40;;;;;;;;;;5099271;28;20230;-68
2022/06/08 12:20:28;;;;;;;2.63;1.63;;;;;;;;;;5093723;28;20213;-68
2022/06/08 12:23:00;;;;;;;2.40;1.20;;;;;;;;;;5080750;28;20713;-68
2022/06/08 12:25:29;;;;;;;4.37;1.60;;;;;;;;;;5094727;28;20240;-64
2022/06/08 12:27:59;;;;;;;3.03;1.27;;;;;;;;;;5098331;28;20275;-64
2022/06/08 12:30:29;;;;;;;2.77;1.50;;;;;;;;;;5097401;28;20204;-66
2022/06/08 12:33:01;;;;;;;2.80;1.60;;;;;;;;;;5099151;28;20241;-66
2022/06/08 12:35:31;;;;;;;3.90;1.50;;;;;;;;;;5097103;28;20206;-69
2022/06/08 12:38:04;;;;;;;4.63;2.10;;;;;;;;;;5096613;28;20229;-66
2022/06/08 12:40:35;;;;;;;2.03;1.90;;;;;;;;;;5099099;28;20236;-65
2022/06/08 12:43:20;;;;;;;2.43;1.57;;;;;;;;;;5090398;28;20221;-66
2022/06/08 12:46:06;;;;;;;3.70;1.67;;;;;;;;;;5096465;28;20210;-65
2022/06/08 12:48:44;;;;;;;1.93;1.37;;;;;;;;;;5096223;28;20721;-67
2022/06/08 12:51:32;;;;;;;2.80;1.50;;;;;;;;;;5099650;28;20210;-67
2022/06/08 12:54:01;;;;;;;6.33;2.00;;;;;;;;;;5100264;28;20267;-67
2022/06/08 12:56:30;;;;;;;3.07;1.20;;;;;;;;;;5097815;28;20796;-65
2022/06/08 12:58:59;;;;;;;3.40;1.60;;;;;;;;;;5085295;28;20307;-68
2022/06/08 13:01:29;;;;;;;3.17;1.70;;;;;;;;;;5097449;28;20208;-68
2022/06/08 13:03:59;;;;;;;4.27;1.60;;;;;;;;;;5097019;28;20658;-68
2022/06/08 13:06:27;;;;;;;1.27;1.17;;;;;;;;;;5097157;28;20247;-68
2022/06/08 13:08:55;;;;;;;4.17;2.13;;;;;;;;;;5098145;28;20204;-68
2022/06/08 13:11:24;;;;;;;3.07;1.63;;;;;;;;;;5097884;28;20654;-68
2022/06/08 13:13:55;;;;;;;1.87;1.50;;;;;;;;;;5097894;28;20232;-68
2022/06/08 13:16:24;;;;;;;4.07;2.03;;;;;;;;;;5098145;28;20225;-68
2022/06/08 13:18:53;;;;;;;1.43;1.33;;;;;;;;;;5095684;28;20214;-68
2022/06/08 13:21:24;;;;;;;3.63;2.30;;;;;;;;;;5097068;28;20688;-67
2022/06/08 13:23:52;;;;;;;7.63;1.77;;;;;;;;;;5099825;28;20220;-67
2022/06/08 13:26:23;;;;;;;2.20;1.60;;;;;;;;;;5098611;28;20225;-67
2022/06/08 13:28:51;;;;;;;2.73;1.70;;;;;;;;;;5097626;28;20202;-68
2022/06/08 13:31:24;;;;;;;1.80;1.50;;;;;;;;;;5091763;28;20233;-67
2022/06/08 13:33:59;;;;;;;3.07;1.80;;;;;;;;;;5099471;28;20234;-67
2022/06/08 13:36:31;;;;;;;1.30;1.20;;;;;;;;;;5096325;28;20217;-66
2022/06/08 13:39:07;;;;;;;1.83;1.50;;;;;;;;;;5098513;28;20212;-67
2022/06/08 13:41:36;;;;;;;2.43;1.90;;;;;;;;;;5096423;28;20232;-70
2022/06/08 13:44:12;;;;;;;3.03;2.17;;;;;;;;;;5091847;28;20233;-67
2022/06/08 13:46:45;;;;;;;2.17;1.50;;;;;;;;;;5086534;28;20594;-69
2022/06/08 13:49:18;;;;;;;1.97;1.63;;;;;;;;;;5082196;28;20238;-67
2022/06/08 13:51:47;;;;;;;1.97;1.40;;;;;;;;;;5079438;28;20210;-68
2022/06/08 13:54:21;;;;;;;1.93;1.30;;;;;;;;;;5080253;28;20225;-70
2022/06/08 13:56:50;;;;;;;4.43;1.50;;;;;;;;;;5079504;28;20224;-71
2022/06/08 13:59:18;;;;;;;5.83;1.70;;;;;;;;;;5091646;28;20674;-73
2022/06/08 14:01:47;;;;;;;1.30;1.20;;;;;;;;;;5087274;28;20234;-77
2022/06/08 14:04:17;;;;;;;1.83;1.17;;;;;;;;;;5080417;28;20641;-73
2022/06/08 14:15:19;;;;;;;2.27;1.30;;;;;;;;;;5092968;28;20293;-61
2022/06/08 14:17:51;;;;;;;2.17;1.83;;;;;;;;;;5086098;28;20234;-61
2022/06/08 14:20:25;;;;;;;2.83;1.70;;;;;;;;;;5094314;28;20571;-61
2022/06/08 14:22:53;;;;;;;2.97;1.30;;;;;;;;;;5098085;28;20245;-62
2022/06/08 14:25:23;;;;;;;3.33;1.80;;;;;;;;;;5097240;28;20236;-63
2022/06/08 14:27:51;;;;;;;4.13;1.43;;;;;;;;;;5097063;28;20229;-64
2022/06/08 14:30:20;;;;;;;1.57;1.27;;;;;;;;;;5096249;28;20237;-62
2022/06/08 14:32:50;;;;;;;1.87;1.67;;;;;;;;;;5095389;28;20235;-63
2022/06/08 14:35:20;;;;;;;1.43;1.20;;;;;;;;;;5091656;28;20289;-61
2022/06/08 14:38:11;;;;;;;2.47;1.40;;;;;;;;;;5086087;28;20209;-61
2022/06/08 14:40:41;;;;;;;2.73;1.17;;;;;;;;;;5086611;28;20209;-62
2022/06/08 14:43:09;;;;;;;2.77;1.77;;;;;;;;;;5082996;28;20794;-61
2022/06/08 14:45:38;;;;;;;2.47;1.57;;;;;;;;;;5090996;28;20220;-61
2022/06/08 14:48:10;;;;;;;2.23;1.33;;;;;;;;;;5092469;28;20221;-62
2022/06/08 14:50:39;;;;;;;4.43;2.27;;;;;;;;;;5094330;28;20253;-62
2022/06/08 14:53:14;;;;;;;3.10;1.50;;;;;;;;;;5097851;28;20212;-61
2022/06/08 14:58:29;;;;;;;2.37;1.47;;;;;;;;;;5089181;28;20251;-62
2022/06/08 15:00:57;;;;;;;2.67;1.80;;;;;;;;;;5094780;28;20206;-61
2022/06/08 15:03:26;;;;;;;1.67;1.53;;;;;;;;;;5096684;28;20225;-62
2022/06/08 15:05:56;;;;;;;1.87;1.50;;;;;;;;;;5096947;28;20234;-62
2022/06/08 15:12:00;;;;;;;18.60;3.10;;;;;;;;;;5094373;28;20179;-62
2022/06/08 15:14:32;;;;;;;7.50;1.60;;;;;;;;;;5094937;28;20233;-63
2022/06/08 15:17:01;;;;;;;2.03;1.13;;;;;;;;;;5092715;28;20227;-62
2022/06/08 15:19:30;;;;;;;2.33;1.40;;;;;;;;;;5093666;28;20309;-62
2022/06/08 15:22:04;;;;;;;3.13;1.77;;;;;;;;;;5096345;28;20288;-62
2022/06/08 15:24:33;;;;;;;3.57;2.40;;;;;;;;;;5089404;28;20224;-62
2022/06/08 15:27:06;;;;;;;1.97;1.73;;;;;;;;;;5091109;28;20223;-63
2022/06/08 15:29:34;;;;;;;2.13;1.27;;;;;;;;;;5089459;28;20208;-63
2022/06/08 15:32:02;;;;;;;1.77;1.60;;;;;;;;;;5095811;28;20253;-63
2022/06/08 15:34:32;;;;;;;1.73;1.10;;;;;;;;;;5094695;28;20233;-65
2022/06/08 15:37:01;;;;;;;3.77;1.40;;;;;;;;;;5094304;28;20229;-66
2022/06/08 15:39:31;;;;;;;2.93;1.70;;;;;;;;;;5090443;28;20199;-65
2022/06/08 15:41:59;;;;;;;16.10;3.43;;;;;;;;;;5095334;28;20241;-64